Time;durP1;ratioP1;P1;durP2;ratioP2;P2;SDS_P1;SDS_P2;PMS_P1;PMS_P2;Temp;Humidity;BMP_temperature;BMP_pressure;BME280_temperature;BME280_humidity;BME280_pressure;Samples;Min_cycle;Max_cycle;Signal;HPM_P1;HPM_P2
2023/03/02 00:01:18;;;;;;;;;32.00;27.50;;;;;4.98;67.78;101798.69;5057332;28;45485;-76
2023/03/02 00:03:44;;;;;;;;;26.00;22.00;;;;;5.00;68.08;101794.41;5037395;28;54611;-77
2023/03/02 00:06:09;;;;;;;;;33.75;22.75;;;;;4.97;68.19;101802.13;5035237;28;52610;-77
2023/03/02 00:08:36;;;;;;;;;31.50;25.50;;;;;4.92;68.04;101794.03;5029862;28;45346;-76
2023/03/02 00:11:01;;;;;;;;;33.25;27.75;;;;;4.94;68.32;101787.16;5056399;28;45279;-76
2023/03/02 00:13:31;;;;;;;;;34.75;28.00;;;;;4.94;68.59;101801.97;5057032;28;45615;-76
2023/03/02 00:15:56;;;;;;;;;38.75;33.00;;;;;4.92;68.71;101798.38;5037519;28;45536;-77
2023/03/02 00:18:22;;;;;;;;;37.00;30.25;;;;;4.96;68.75;101808.19;5031951;28;45551;-78
2023/03/02 00:20:47;;;;;;;;;39.00;33.00;;;;;4.99;69.27;101800.47;5016064;28;54830;-77
2023/03/02 00:23:14;;;;;;;;;36.50;30.00;;;;;5.05;69.09;101803.38;5035005;28;61910;-77
2023/03/02 00:25:39;;;;;;;;;36.50;35.25;;;;;5.05;69.15;101803.38;5050747;28;62574;-77
2023/03/02 00:28:04;;;;;;;;;47.25;37.00;;;;;5.05;68.98;101805.09;5039034;28;45627;-77
2023/03/02 00:30:30;;;;;;;;;38.00;34.50;;;;;5.02;69.41;101800.63;5038541;28;45318;-77
2023/03/02 00:32:57;;;;;;;;;40.75;30.50;;;;;5.00;69.23;101805.78;5055799;28;61257;-77
2023/03/02 00:35:22;;;;;;;;;42.25;31.25;;;;;5.01;69.47;101809.31;5056821;28;45250;-78
2023/03/02 00:37:48;;;;;;;;;43.75;35.00;;;;;4.95;69.29;101799.44;5021162;28;45421;-78
2023/03/02 00:40:13;;;;;;;;;47.50;35.25;;;;;4.93;69.21;101795.84;5056846;28;45413;-76
2023/03/02 00:42:39;;;;;;;;;46.50;36.75;;;;;4.95;69.01;101807.28;5056222;28;45809;-76
2023/03/02 00:45:05;;;;;;;;;39.00;32.50;;;;;4.88;68.99;101791.19;5056105;28;59052;-77
2023/03/02 00:47:33;;;;;;;;;47.25;37.25;;;;;4.86;69.35;101803.31;5056635;28;45366;-77
2023/03/02 00:49:58;;;;;;;;;35.75;32.25;;;;;4.86;69.23;101804.22;5035126;28;45383;-77
2023/03/02 00:52:23;;;;;;;;;36.00;30.50;;;;;4.81;69.56;101802.19;5012763;28;47554;-77
2023/03/02 00:54:49;;;;;;;;;51.75;37.25;;;;;4.80;69.76;101811.75;5034523;28;60624;-77
2023/03/02 00:57:14;;;;;;;;;36.50;27.50;;;;;4.80;69.85;101800.41;5036913;28;45486;-78
2023/03/02 00:59:40;;;;;;;;;49.75;34.50;;;;;4.76;69.93;101806.31;5055722;28;45371;-78
2023/03/02 01:02:05;;;;;;;;;41.50;28.75;;;;;4.76;69.87;101809.81;5030966;28;47538;-77
2023/03/02 01:04:37;;;;;;;;;47.75;28.50;;;;;4.72;69.72;101807.84;5018295;28;45833;-77
2023/03/02 01:07:11;;;;;;;;;40.00;29.75;;;;;4.71;69.65;101798.22;5031367;28;45291;-77
2023/03/02 01:09:37;;;;;;;;;36.25;30.00;;;;;4.68;69.58;101808.50;5021580;28;45480;-77
2023/03/02 01:12:04;;;;;;;;;30.00;26.00;;;;;4.64;69.77;101802.25;5039073;28;46575;-76
2023/03/02 01:14:29;;;;;;;;;36.75;29.50;;;;;4.62;70.33;101811.72;5059689;28;45345;-76
2023/03/02 01:16:55;;;;;;;;;47.25;33.25;;;;;4.58;70.55;101801.00;5024115;28;45468;-79
2023/03/02 01:19:20;;;;;;;;;33.50;30.50;;;;;4.59;70.50;101801.13;5059374;28;45293;-77
2023/03/02 01:21:45;;;;;;;;;43.50;28.75;;;;;4.56;70.47;101805.28;5059355;28;54133;-77
2023/03/02 01:24:11;;;;;;;;;44.25;33.75;;;;;4.53;70.17;101802.50;5058890;28;59453;-79
2023/03/02 01:26:37;;;;;;;;;38.00;33.00;;;;;4.44;70.14;101787.25;5039523;28;45323;-77
2023/03/02 01:29:03;;;;;;;;;40.25;28.25;;;;;4.39;69.92;101789.63;5058798;28;57001;-77
2023/03/02 01:31:29;;;;;;;;;53.00;34.75;;;;;4.36;69.88;101793.78;5041137;28;46917;-78
2023/03/02 01:33:54;;;;;;;;;45.75;33.75;;;;;4.33;70.44;101799.78;5038040;28;45377;-77
2023/03/02 01:36:21;;;;;;;;;34.25;28.25;;;;;4.29;70.58;101794.31;5038239;28;45429;-77
2023/03/02 01:38:46;;;;;;;;;37.50;29.00;;;;;4.26;70.60;101786.28;5038268;28;45628;-76
2023/03/02 01:41:12;;;;;;;;;39.25;29.75;;;;;4.27;70.63;101793.34;5037764;28;46658;-77
2023/03/02 01:43:38;;;;;;;;;38.75;29.50;;;;;4.29;71.01;101789.97;5041491;28;45275;-77
2023/03/02 01:46:03;;;;;;;;;33.75;30.75;;;;;4.30;71.08;101789.16;5039518;28;45226;-77
2023/03/02 01:48:34;;;;;;;;;35.50;29.75;;;;;4.28;71.30;101779.44;5038020;28;45458;-77
2023/03/02 01:51:00;;;;;;;;;32.00;27.00;;;;;4.23;70.99;101765.25;5036009;28;48019;-78
2023/03/02 01:53:28;;;;;;;;;31.25;25.50;;;;;4.22;70.99;101780.03;5057800;28;45323;-76
2023/03/02 01:55:54;;;;;;;;;37.25;32.00;;;;;4.18;71.28;101768.50;5053278;28;45409;-77
2023/03/02 01:58:20;;;;;;;;;38.25;29.75;;;;;4.19;71.20;101777.25;5041288;28;45352;-79
2023/03/02 02:00:46;;;;;;;;;34.75;27.25;;;;;4.18;70.60;101775.47;5058309;28;47237;-79
2023/03/02 02:03:19;;;;;;;;;36.00;28.50;;;;;4.12;71.01;101772.53;5040001;28;45343;-77
2023/03/02 02:05:48;;;;;;;;;38.00;33.50;;;;;4.09;70.99;101772.34;5039714;28;45547;-76
2023/03/02 02:08:13;;;;;;;;;30.75;24.50;;;;;4.07;71.30;101776.63;5037870;28;45524;-77
2023/03/02 02:10:39;;;;;;;;;17.75;7.75;;;;;4.03;71.21;101758.97;5055439;28;45939;-80
2023/03/02 02:13:08;;;;;;;;;41.00;28.75;;;;;4.05;71.52;101768.72;5020118;28;64328;-77
2023/03/02 02:15:34;;;;;;;;;34.75;28.50;;;;;4.05;71.62;101773.00;5055023;28;45653;-77
2023/03/02 02:17:59;;;;;;;;;35.25;29.25;;;;;4.08;71.59;101766.22;5056804;28;54585;-79
2023/03/02 02:20:30;;;;;;;;;33.00;27.75;;;;;4.06;71.94;101772.22;5058290;28;45986;-76
2023/03/02 02:23:13;;;;;;;;;35.00;27.75;;;;;4.05;71.87;101765.16;5039760;28;45432;-77
2023/03/02 02:25:54;;;;;;;;;35.75;26.75;;;;;4.01;71.85;101763.25;5058682;28;45318;-77
2023/03/02 02:28:27;;;;;;;;;42.25;29.75;;;;;4.01;71.64;101769.34;5047151;28;45644;-76
2023/03/02 02:31:04;;;;;;;;;41.00;31.50;;;;;4.02;72.30;101770.25;5021274;28;47476;-77
2023/03/02 02:33:31;;;;;;;;;38.25;28.75;;;;;4.00;72.41;101774.50;5040649;28;45495;-77
2023/03/02 02:36:04;;;;;;;;;36.75;32.00;;;;;3.97;72.69;101770.00;5020964;28;63319;-77
2023/03/02 02:38:29;;;;;;;;;35.75;28.75;;;;;3.92;72.37;101761.03;5040508;28;45340;-76
2023/03/02 02:40:57;;;;;;;;;33.50;27.50;;;;;3.87;72.29;101758.16;5036748;28;54825;-76
2023/03/02 02:43:23;;;;;;;;;41.50;32.25;;;;;3.87;72.07;101758.16;5037160;28;45520;-77
2023/03/02 02:45:51;;;;;;;;;37.75;27.00;;;;;3.85;72.04;101759.81;5051522;28;53598;-77
2023/03/02 02:48:23;;;;;;;;;38.50;30.00;;;;;3.81;72.44;101751.72;5020217;28;45354;-77
2023/03/02 02:50:50;;;;;;;;;25.00;24.25;;;;;3.80;72.59;101748.22;5033092;28;46822;-78
2023/03/02 02:53:19;;;;;;;;;40.50;23.75;;;;;3.80;73.12;101748.22;5037029;28;45342;-76
2023/03/02 02:55:47;;;;;;;;;34.50;30.25;;;;;3.80;73.05;101748.22;5040167;28;45497;-77
2023/03/02 02:58:37;;;;;;;;;38.50;30.50;;;;;3.82;73.11;101746.56;5038206;28;45557;-77
2023/03/02 03:01:03;;;;;;;;;38.25;27.00;;;;;3.81;73.19;101747.41;5054588;28;46888;-77
2023/03/02 03:03:32;;;;;;;;;31.50;24.50;;;;;3.79;73.02;101741.22;5039730;28;54948;-77
2023/03/02 03:06:01;;;;;;;;;34.50;29.25;;;;;3.75;73.36;101735.75;5050569;28;45297;-77
2023/03/02 03:08:44;;;;;;;;;26.75;25.75;;;;;3.77;73.23;101745.44;5040304;28;45593;-80
2023/03/02 03:11:18;;;;;;;;;33.00;28.00;;;;;3.76;72.90;101737.53;5050234;28;45912;-77
2023/03/02 03:13:45;;;;;;;;;41.25;30.75;;;;;3.74;73.04;101742.69;5019631;28;45461;-78
2023/03/02 03:16:15;;;;;;;;;34.50;27.50;;;;;3.71;73.38;101739.00;5022010;28;45279;-79
2023/03/02 03:18:47;;;;;;;;;30.25;28.00;;;;;3.73;73.23;101746.13;5038234;28;45442;-77
2023/03/02 03:21:13;;;;;;;;;38.00;26.50;;;;;3.73;73.42;101747.78;5044172;28;67580;-77
2023/03/02 03:23:38;;;;;;;;;30.00;25.25;;;;;3.71;73.41;101747.72;5060698;28;64538;-78
2023/03/02 03:26:04;;;;;;;;;31.00;27.50;;;;;3.74;73.88;101747.00;5038096;28;51010;-78
2023/03/02 03:28:30;;;;;;;;;31.00;27.25;;;;;3.73;73.56;101747.78;5039511;28;45458;-77
2023/03/02 03:30:56;;;;;;;;;32.25;26.25;;;;;3.70;74.01;101747.66;5042923;28;45464;-79
2023/03/02 03:33:21;;;;;;;;;39.00;27.00;;;;;3.69;73.83;101746.75;5034695;28;45432;-77
2023/03/02 03:35:47;;;;;;;;;32.75;25.00;;;;;3.66;73.60;101747.47;5035419;28;62470;-76
2023/03/02 03:38:12;;;;;;;;;24.75;23.75;;;;;3.66;74.09;101743.97;5053320;28;59108;-78
2023/03/02 03:40:37;;;;;;;;;28.25;25.50;;;;;3.62;73.53;101742.94;5056744;28;67245;-78
2023/03/02 03:43:03;;;;;;;;;40.75;27.25;;;;;3.63;73.93;101749.03;5056231;28;45302;-78
2023/03/02 03:45:28;;;;;;;;;39.75;30.25;;;;;3.59;73.94;101742.75;5038669;28;61068;-77
2023/03/02 03:47:54;;;;;;;;;23.75;22.75;;;;;3.60;73.92;101746.25;5039501;28;45540;-77
2023/03/02 03:50:19;;;;;;;;;29.25;27.50;;;;;3.56;73.77;101736.47;5058428;28;63249;-77
2023/03/02 03:52:45;;;;;;;;;29.50;25.25;;;;;3.58;73.73;101747.91;5038988;28;45272;-76
2023/03/02 03:55:11;;;;;;;;;39.50;31.25;;;;;3.53;73.86;101734.59;5056827;28;60484;-79
2023/03/02 03:57:36;;;;;;;;;34.50;24.50;;;;;3.53;74.54;101737.19;5037330;28;45506;-77
2023/03/02 04:00:05;;;;;;;;;40.25;34.00;;;;;3.55;74.22;101747.72;5038894;28;47132;-76
2023/03/02 04:02:30;;;;;;;;;38.00;28.50;;;;;3.55;74.54;101745.09;5039041;28;45476;-77
2023/03/02 04:04:56;;;;;;;;;39.00;30.00;;;;;3.55;74.93;101740.78;5051504;28;53689;-78
2023/03/02 04:07:21;;;;;;;;;34.00;28.25;;;;;3.53;75.28;101737.19;5052606;28;45284;-77
2023/03/02 04:09:46;;;;;;;;;36.25;29.75;;;;;3.54;75.02;101738.09;5040001;28;47502;-77
2023/03/02 04:12:12;;;;;;;;;30.75;25.00;;;;;3.52;75.57;101744.97;5056979;28;59661;-77
2023/03/02 04:14:37;;;;;;;;;36.50;28.00;;;;;3.53;74.60;101747.66;5057049;28;45910;-77
2023/03/02 04:17:04;;;;;;;;;29.50;26.75;;;;;3.51;74.32;101751.88;5057709;28;45323;-77
2023/03/02 04:19:30;;;;;;;;;41.25;30.25;;;;;3.47;74.30;101752.53;5056507;28;45929;-78
2023/03/02 04:21:57;;;;;;;;;34.25;27.50;;;;;3.42;74.30;101754.00;5040501;28;45461;-77
2023/03/02 04:24:23;;;;;;;;;33.75;29.25;;;;;3.41;74.20;101762.66;5035573;28;45470;-77
2023/03/02 04:26:49;;;;;;;;;33.75;27.25;;;;;3.34;74.90;101753.56;5035109;28;45700;-81
2023/03/02 04:29:14;;;;;;;;;40.25;26.00;;;;;3.36;75.33;101762.41;5062139;28;45676;-77
2023/03/02 04:31:40;;;;;;;;;42.25;32.00;;;;;3.32;75.08;101755.22;5042366;28;45408;-77
2023/03/02 04:34:06;;;;;;;;;43.25;32.50;;;;;3.32;75.67;101755.22;5039002;28;45367;-78
2023/03/02 04:36:33;;;;;;;;;32.00;29.25;;;;;3.34;75.43;101763.13;5038809;28;45373;-77
2023/03/02 04:38:59;;;;;;;;;37.75;29.75;;;;;3.29;75.15;101756.75;5034905;28;45881;-76
2023/03/02 04:41:24;;;;;;;;;35.25;30.00;;;;;3.31;75.17;101761.25;5052058;28;63211;-77
2023/03/02 04:43:51;;;;;;;;;30.25;23.75;;;;;3.28;75.50;101763.69;5054790;28;59876;-77
2023/03/02 04:46:22;;;;;;;;;40.00;32.00;;;;;3.28;75.09;101771.50;5056628;28;45177;-77
2023/03/02 04:48:47;;;;;;;;;33.00;26.50;;;;;3.28;75.84;101766.28;5038419;28;45421;-80
2023/03/02 04:51:22;;;;;;;;;36.25;30.50;;;;;3.29;75.64;101768.06;5025588;28;46556;-77
2023/03/02 04:53:51;;;;;;;;;35.00;26.00;;;;;3.29;75.08;101762.84;5031766;28;45275;-78
2023/03/02 04:56:17;;;;;;;;;32.50;31.25;;;;;3.30;75.57;101774.19;5037812;28;45409;-77
2023/03/02 04:58:42;;;;;;;;;34.25;30.00;;;;;3.27;76.05;101767.09;5055333;28;64511;-76
2023/03/02 05:01:09;;;;;;;;;41.75;29.25;;;;;3.27;76.05;101764.50;5055150;28;67335;-77
2023/03/02 05:03:34;;;;;;;;;34.25;29.00;;;;;3.29;76.55;101768.06;5056687;28;45463;-79
2023/03/02 05:06:01;;;;;;;;;30.50;28.25;;;;;3.29;76.32;101761.97;5035098;28;45579;-77
2023/03/02 05:08:26;;;;;;;;;39.00;30.50;;;;;3.28;76.08;101768.91;5037811;28;46063;-77
2023/03/02 05:10:52;;;;;;;;;37.25;25.25;;;;;3.27;75.64;101763.59;5054218;28;45397;-76
2023/03/02 05:13:17;;;;;;;;;38.75;27.00;;;;;3.29;76.05;101773.28;5036298;28;62528;-77
2023/03/02 05:15:42;;;;;;;;;40.00;29.50;;;;;3.25;76.16;101757.38;5044753;28;61066;-79
2023/03/02 05:18:10;;;;;;;;;33.50;28.50;;;;;3.26;76.08;101753.97;5056825;28;46503;-76
2023/03/02 05:20:36;;;;;;;;;38.00;29.50;;;;;3.27;76.05;101743.63;5034802;28;45476;-77
2023/03/02 05:23:04;;;;;;;;;35.50;32.75;;;;;3.28;76.41;101754.94;5043147;28;45569;-77
2023/03/02 05:25:32;;;;;;;;;39.00;34.25;;;;;3.31;76.40;101755.13;5038158;28;45495;-78
2023/03/02 05:27:57;;;;;;;;;38.00;32.00;;;;;3.29;76.44;101760.25;5038119;28;45801;-81
2023/03/02 05:30:24;;;;;;;;;36.75;30.00;;;;;3.29;76.54;101759.34;5033967;28;55575;-76
2023/03/02 05:32:50;;;;;;;;;44.00;28.50;;;;;3.27;76.03;101758.38;5030332;28;45492;-77
2023/03/02 05:35:16;;;;;;;;;36.25;27.00;;;;;3.24;76.56;101753.88;5037163;28;45321;-77
2023/03/02 05:37:43;;;;;;;;;42.75;32.00;;;;;3.27;76.32;101768.81;5054580;28;48499;-79
2023/03/02 05:40:13;;;;;;;;;34.00;30.25;;;;;3.26;76.64;101767.94;5053741;28;45250;-79
2023/03/02 05:42:40;;;;;;;;;38.75;32.25;;;;;3.25;77.35;101768.75;5038220;28;45324;-77
2023/03/02 05:45:07;;;;;;;;;32.75;25.75;;;;;3.21;77.02;101758.03;5034846;28;45199;-79
2023/03/02 05:47:32;;;;;;;;;34.75;27.00;;;;;3.20;76.98;101757.16;5055196;28;46557;-76
2023/03/02 05:49:58;;;;;;;;;26.00;24.75;;;;;3.19;76.81;101764.88;5055069;28;66694;-78
2023/03/02 05:52:24;;;;;;;;;42.50;32.50;;;;;3.15;76.79;101754.28;5020946;28;45289;-77
2023/03/02 05:54:49;;;;;;;;;38.00;29.75;;;;;3.16;76.66;101760.41;5037971;28;45375;-75
2023/03/02 05:57:14;;;;;;;;;35.50;28.25;;;;;3.12;76.48;101761.03;5057008;28;63811;-77
2023/03/02 05:59:40;;;;;;;;;41.75;30.00;;;;;3.15;76.85;101761.22;5037440;28;52035;-79
2023/03/02 06:02:05;;;;;;;;;37.00;27.25;;;;;3.12;77.38;101777.59;5052035;28;58997;-79
2023/03/02 06:04:30;;;;;;;;;46.50;37.00;;;;;3.13;77.45;101771.53;5039406;28;45386;-78
2023/03/02 06:06:56;;;;;;;;;43.25;31.25;;;;;3.14;77.89;101773.38;5032641;28;45485;-77
2023/03/02 06:09:21;;;;;;;;;44.25;33.25;;;;;3.18;77.46;101776.13;5039596;28;45582;-76
2023/03/02 06:11:47;;;;;;;;;53.75;32.00;;;;;3.12;77.16;101774.97;5040079;28;45472;-77
2023/03/02 06:14:12;;;;;;;;;36.50;29.00;;;;;3.14;76.99;101782.88;5154685;22;45703;-77
2023/03/02 06:16:37;;;;;;;;;40.75;33.50;;;;;3.11;77.24;101788.84;5040297;28;45798;-76
2023/03/02 06:19:03;;;;;;;;;36.75;33.50;;;;;3.10;77.71;101787.03;5023042;28;46284;-76
2023/03/02 06:21:28;;;;;;;;;43.00;32.75;;;;;3.10;77.27;101792.25;5039697;28;62324;-75
2023/03/02 06:23:53;;;;;;;;;39.00;32.75;;;;;3.12;77.05;101793.25;5040076;28;57830;-76
2023/03/02 06:26:19;;;;;;;;;31.75;27.00;;;;;3.12;77.38;101793.25;5040201;28;57188;-79
2023/03/02 06:28:44;;;;;;;;;54.50;31.00;;;;;3.13;77.77;101799.34;5040668;28;64584;-76
2023/03/02 06:31:09;;;;;;;;;39.50;31.25;;;;;3.09;77.98;101794.75;5047089;28;60719;-76
2023/03/02 06:33:35;;;;;;;;;45.75;38.00;;;;;3.11;78.17;101801.00;5039835;28;61268;-76
2023/03/02 06:36:00;;;;;;;;;43.75;38.25;;;;;3.12;78.12;101800.16;5057613;28;67317;-76
2023/03/02 06:38:25;;;;;;;;;44.25;33.75;;;;;3.11;77.79;101808.81;5057115;28;45370;-76
2023/03/02 06:40:51;;;;;;;;;43.00;38.25;;;;;3.11;78.04;101812.31;5036905;28;53527;-78
2023/03/02 06:43:16;;;;;;;;;50.25;37.75;;;;;3.08;78.09;101806.91;5035231;28;61952;-76
2023/03/02 06:45:41;;;;;;;;;36.25;23.75;;;;;3.10;78.31;101807.03;5055965;28;63642;-76
2023/03/02 06:48:07;;;;;;;;;36.75;30.50;;;;;3.10;77.86;101802.69;5039554;28;59832;-76
2023/03/02 06:50:33;;;;;;;;;45.50;33.50;;;;;3.14;78.05;101809.91;5040446;28;45800;-77
2023/03/02 06:52:58;;;;;;;;;40.50;33.50;;;;;3.11;78.05;101814.94;5039611;28;45545;-76
2023/03/02 06:55:24;;;;;;;;;42.25;36.75;;;;;3.15;78.61;101816.00;5020375;28;49693;-79
2023/03/02 06:57:49;;;;;;;;;47.00;32.00;;;;;3.15;78.57;101814.28;5036947;28;45298;-77
2023/03/02 07:00:16;;;;;;;;;37.00;33.00;;;;;3.17;78.39;101818.69;5032898;28;45315;-77
2023/03/02 07:02:43;;;;;;;;;37.25;37.25;;;;;3.20;78.47;101825.00;5059578;28;45495;-77
2023/03/02 07:05:09;;;;;;;;;37.25;31.25;;;;;3.19;78.88;101812.75;5041289;28;46066;-76
2023/03/02 07:07:34;;;;;;;;;37.75;33.50;;;;;3.24;78.79;101819.13;5044787;28;61325;-76
2023/03/02 07:10:00;;;;;;;;;38.50;32.00;;;;;3.24;78.64;101818.22;5032893;28;45393;-76
2023/03/02 07:12:25;;;;;;;;;46.75;38.50;;;;;3.25;78.64;101814.78;5033166;28;58430;-76
2023/03/02 07:14:50;;;;;;;;;36.75;30.75;;;;;3.26;79.38;101808.78;5019423;28;47363;-77
2023/03/02 07:17:16;;;;;;;;;44.00;37.50;;;;;3.33;79.00;101816.13;5035529;28;63726;-76
2023/03/02 07:19:41;;;;;;;;;37.50;34.50;;;;;3.36;79.25;101822.44;5055035;28;45886;-76
2023/03/02 07:22:06;;;;;;;;;44.50;33.50;;;;;3.38;79.66;101819.91;5039336;28;45441;-77
2023/03/02 07:24:32;;;;;;;;;36.50;34.00;;;;;3.39;79.18;101811.25;5019102;28;65688;-76
2023/03/02 07:26:57;;;;;;;;;44.00;36.25;;;;;3.38;79.00;101805.13;5055455;28;45242;-75
2023/03/02 07:29:22;;;;;;;;;45.00;33.75;;;;;3.41;78.93;101814.88;5039480;28;49657;-76
2023/03/02 07:31:48;;;;;;;;;41.00;30.00;;;;;3.36;78.21;101804.16;5056453;28;57270;-78
2023/03/02 07:34:15;;;;;;;;;41.00;36.00;;;;;3.40;78.85;101806.09;5039418;28;45716;-77
2023/03/02 07:36:40;;;;;;;;;40.50;34.00;;;;;3.44;79.60;101809.81;5057271;28;45948;-76
2023/03/02 07:39:05;;;;;;;;;43.75;32.75;;;;;3.47;79.53;101809.97;5038356;28;62074;-78
2023/03/02 07:41:31;;;;;;;;;52.75;40.00;;;;;3.53;79.86;101807.69;5039411;28;45228;-76
2023/03/02 07:43:56;;;;;;;;;47.50;35.50;;;;;3.57;80.00;101811.34;5039110;28;46522;-80
2023/03/02 07:46:21;;;;;;;;;45.00;32.00;;;;;3.61;79.50;101810.72;5056609;28;63171;-77
2023/03/02 07:48:47;;;;;;;;;45.50;31.50;;;;;3.61;79.87;101813.34;5038608;28;58445;-76
2023/03/02 07:51:12;;;;;;;;;41.00;36.25;;;;;3.64;79.55;101808.28;5036091;28;45363;-75
2023/03/02 07:53:38;;;;;;;;;43.25;35.50;;;;;3.67;79.59;101814.59;5029041;28;63723;-76
2023/03/02 07:56:08;;;;;;;;;35.50;29.00;;;;;3.68;79.16;101811.16;5035339;28;45492;-78
2023/03/02 07:58:33;;;;;;;;;40.50;31.25;;;;;3.70;79.86;101808.63;5028407;28;45251;-76
2023/03/02 08:00:58;;;;;;;;;45.25;40.50;;;;;3.75;79.28;101825.44;5055112;28;45220;-76
2023/03/02 08:03:24;;;;;;;;;48.50;39.75;;;;;3.78;79.68;101817.78;5039215;28;46346;-80
2023/03/02 08:05:49;;;;;;;;;42.75;32.75;;;;;3.81;79.82;101810.09;5029246;28;45520;-77
2023/03/02 08:08:14;;;;;;;;;45.00;37.00;;;;;3.84;80.06;101801.53;5035172;28;56191;-77
2023/03/02 08:10:40;;;;;;;;;45.50;40.50;;;;;3.90;79.73;101809.69;5036081;28;52762;-77
2023/03/02 08:13:05;;;;;;;;;39.25;37.00;;;;;3.91;80.02;101814.09;5038045;28;67811;-80
2023/03/02 08:15:30;;;;;;;;;40.00;32.25;;;;;3.95;79.73;101818.69;5030538;28;45314;-77
2023/03/02 08:17:56;;;;;;;;;50.25;39.50;;;;;3.99;79.96;101824.94;5037808;28;53974;-80
2023/03/02 08:20:21;;;;;;;;;38.25;32.75;;;;;4.04;79.68;101823.47;5037916;28;45465;-78
2023/03/02 08:22:46;;;;;;;;;39.25;31.75;;;;;4.08;79.89;101823.72;5062839;28;53546;-77
2023/03/02 08:25:12;;;;;;;;;38.25;30.75;;;;;4.08;79.74;101817.59;5038001;28;59271;-76
2023/03/02 08:27:39;;;;;;;;;46.25;33.00;;;;;4.16;79.74;101821.53;5038822;28;45323;-77
2023/03/02 08:30:05;;;;;;;;;40.75;35.75;;;;;4.19;79.64;101821.69;5066005;28;45579;-77
2023/03/02 08:32:32;;;;;;;;;33.75;24.00;;;;;4.22;79.49;101816.63;5038328;28;45600;-77
2023/03/02 08:34:58;;;;;;;;;48.00;34.75;;;;;4.25;79.55;101821.09;5056380;28;45440;-78
2023/03/02 08:37:23;;;;;;;;;39.50;32.00;;;;;4.28;79.60;101821.28;5022104;28;45289;-77
2023/03/02 08:39:49;;;;;;;;;51.00;39.00;;;;;4.32;79.44;101821.53;5055393;28;45472;-79
2023/03/02 08:42:15;;;;;;;;;52.75;36.50;;;;;4.39;79.45;101813.16;5018147;28;47431;-77
2023/03/02 08:44:40;;;;;;;;;50.50;38.75;;;;;4.42;79.31;101815.97;5018905;28;45945;-77
2023/03/02 08:47:05;;;;;;;;;44.75;35.00;;;;;4.43;79.16;101796.81;5055823;28;55999;-79
2023/03/02 08:49:31;;;;;;;;;61.00;48.75;;;;;4.50;79.26;101804.97;5035263;28;45409;-76
2023/03/02 08:51:58;;;;;;;;;49.00;42.75;;;;;4.55;79.96;101812.25;5028541;28;55567;-77
2023/03/02 08:54:23;;;;;;;;;58.50;43.75;;;;;4.61;79.29;101803.81;5056242;28;45400;-77
2023/03/02 08:56:49;;;;;;;;;44.00;39.75;;;;;4.65;79.16;101792.69;5034813;28;45401;-76
2023/03/02 08:59:15;;;;;;;;;46.50;37.50;;;;;4.67;79.18;101802.38;5036135;28;45355;-76
2023/03/02 09:01:41;;;;;;;;;46.50;37.00;;;;;4.68;78.95;101795.44;5035016;28;45341;-76
2023/03/02 09:04:08;;;;;;;;;51.25;41.00;;;;;4.68;78.54;101791.09;5032776;28;45410;-76
2023/03/02 09:06:36;;;;;;;;;56.00;44.00;;;;;4.68;78.64;101791.09;5035042;28;45250;-76
2023/03/02 09:09:02;;;;;;;;;42.25;38.50;;;;;4.74;79.01;101801.00;5034202;28;45380;-79
2023/03/02 09:11:27;;;;;;;;;42.25;38.50;;;;;4.76;79.08;101787.97;5037225;28;46823;-78
2023/03/02 09:13:53;;;;;;;;;53.50;41.25;;;;;4.84;78.69;101784.00;5037828;28;45362;-79
2023/03/02 09:16:19;;;;;;;;;52.50;41.00;;;;;4.87;78.88;101782.44;5038560;28;45404;-77
2023/03/02 09:18:45;;;;;;;;;54.00;41.00;;;;;4.88;79.09;101770.25;5055414;28;45675;-76
2023/03/02 09:21:10;;;;;;;;;42.75;36.00;;;;;4.93;79.02;101774.00;5021029;28;47580;-75
2023/03/02 09:23:35;;;;;;;;;43.25;36.75;;;;;4.98;78.79;101783.88;5019622;28;67876;-77
2023/03/02 09:26:02;;;;;;;;;33.50;30.75;;;;;5.00;78.43;101773.47;5047071;28;57470;-76
2023/03/02 09:28:27;;;;;;;;;44.00;36.50;;;;;5.03;78.45;101773.63;5037506;28;45319;-78
2023/03/02 09:30:56;;;;;;;;;54.75;35.50;;;;;5.11;78.68;101787.97;5037905;28;45398;-77
2023/03/02 09:33:22;;;;;;;;;36.00;30.00;;;;;5.15;78.86;101776.81;5041204;28;45495;-75
2023/03/02 09:35:47;;;;;;;;;44.00;37.75;;;;;5.19;78.71;101783.13;5041688;28;45391;-77
2023/03/02 09:38:17;;;;;;;;;50.00;39.00;;;;;5.26;78.65;101788.72;5033120;28;64517;-76
2023/03/02 09:41:02;;;;;;;;;42.50;35.75;;;;;5.32;78.66;101782.88;5020691;28;47411;-76
2023/03/02 09:43:37;;;;;;;;;41.75;33.75;;;;;5.39;78.74;101784.97;5052471;28;45229;-76
2023/03/02 09:46:15;;;;;;;;;46.50;37.50;;;;;5.45;78.77;101776.50;5054200;28;45260;-76
2023/03/02 09:49:22;;;;;;;;;49.00;36.75;;;;;5.56;78.83;101770.03;5059526;28;45377;-75
2023/03/02 09:52:06;;;;;;;;;46.75;35.75;;;;;5.71;78.86;101780.34;4989897;28;46790;-78
2023/03/02 09:54:34;;;;;;;;;40.25;38.00;;;;;5.79;78.74;101773.69;4996995;28;45450;-76
2023/03/02 09:57:00;;;;;;;;;49.50;34.00;;;;;5.88;78.61;101778.47;5017090;28;45338;-77
2023/03/02 09:59:40;;;;;;;;;42.00;36.00;;;;;5.96;77.80;101783.25;5024207;28;45302;-77
2023/03/02 10:02:20;;;;;;;;;41.75;34.25;;;;;6.02;77.66;101780.03;5037758;28;45540;-76
2023/03/02 10:04:47;;;;;;;;;43.25;37.00;;;;;6.07;77.59;101775.84;5042682;28;45405;-78
2023/03/02 10:07:16;;;;;;;;;43.00;35.75;;;;;6.14;77.47;101780.56;5051636;28;45345;-76
2023/03/02 10:09:41;;;;;;;;;51.00;34.25;;;;;6.18;76.59;101785.13;5039434;28;45652;-76
2023/03/02 10:12:09;;;;;;;;;53.25;41.50;;;;;6.25;76.88;101781.94;5058650;28;45881;-76
2023/03/02 10:14:43;;;;;;;;;51.75;40.00;;;;;6.34;76.92;101781.44;5058459;28;45389;-76
2023/03/02 10:17:25;;;;;;;;;41.50;40.00;;;;;6.40;76.72;101792.19;5040550;28;45405;-76
2023/03/02 10:19:55;;;;;;;;;39.00;36.50;;;;;6.42;76.53;101789.63;5056340;28;45307;-77
2023/03/02 10:22:27;;;;;;;;;46.50;36.00;;;;;6.49;76.06;101786.44;5046807;28;46696;-75
2023/03/02 10:25:21;;;;;;;;;52.00;37.50;;;;;6.55;76.11;101777.13;5040454;28;45449;-76
2023/03/02 10:27:51;;;;;;;;;48.25;39.25;;;;;6.61;76.07;101776.47;5040825;28;45334;-78
2023/03/02 10:30:30;;;;;;;;;41.25;35.50;;;;;6.66;75.86;101753.94;5046945;28;45500;-78
2023/03/02 10:33:02;;;;;;;;;44.75;38.00;;;;;6.72;75.96;101756.81;5033167;28;46212;-79
2023/03/02 10:35:28;;;;;;;;;41.25;37.00;;;;;6.79;75.55;101764.09;5037000;28;45545;-77
2023/03/02 10:38:05;;;;;;;;;43.50;38.75;;;;;6.85;75.35;101767.81;5032034;28;45311;-76
2023/03/02 10:40:55;;;;;;;;;44.75;38.75;;;;;6.96;75.52;101766.53;5023682;28;45555;-75
2023/03/02 10:43:33;;;;;;;;;49.50;37.50;;;;;7.01;75.15;101757.09;5036474;28;45753;-78
2023/03/02 10:46:03;;;;;;;;;43.50;35.50;;;;;7.04;74.93;101754.63;5058316;28;45234;-76
2023/03/02 10:48:29;;;;;;;;;38.50;32.25;;;;;7.12;75.38;101754.91;5037365;28;45502;-76
2023/03/02 10:50:56;;;;;;;;;51.75;40.50;;;;;7.15;75.08;101755.94;5037641;28;45494;-77
2023/03/02 10:53:22;;;;;;;;;41.00;37.25;;;;;7.21;75.04;101743.03;5036872;28;47209;-76
2023/03/02 10:55:51;;;;;;;;;42.75;36.50;;;;;7.30;74.86;101742.50;5036039;28;45548;-76
2023/03/02 10:58:30;;;;;;;;;50.50;38.00;;;;;7.35;74.67;101743.59;5020418;28;45344;-76
2023/03/02 11:01:00;;;;;;;;;38.50;34.25;;;;;7.42;74.32;101742.97;5055924;28;45392;-76
2023/03/02 11:03:26;;;;;;;;;47.75;38.00;;;;;7.45;74.15;101732.56;5037374;28;47654;-76
2023/03/02 11:05:52;;;;;;;;;41.50;33.25;;;;;7.51;74.01;101731.91;5027367;28;45514;-78
2023/03/02 11:08:26;;;;;;;;;43.75;33.50;;;;;7.55;73.68;101741.69;5036874;28;45333;-76
2023/03/02 11:10:51;;;;;;;;;48.00;36.00;;;;;7.62;73.55;101741.13;5036278;28;45504;-78
2023/03/02 11:13:32;;;;;;;;;42.00;34.25;;;;;7.65;73.65;101728.06;5055260;28;45655;-76
2023/03/02 11:16:22;;;;;;;;;42.00;35.25;;;;;7.74;73.61;101733.66;5057469;28;45318;-76
2023/03/02 11:18:51;;;;;;;;;44.50;37.75;;;;;7.82;73.68;101742.72;5046969;28;45387;-76